createdAt,value
2023-03-26T00:00:44.981Z,97890.20
2023-03-26T00:03:39.214Z,97892.00
2023-03-26T00:06:30.891Z,97884.05
2023-03-26T00:09:19.796Z,97888.47
2023-03-26T00:12:08.376Z,97885.51
2023-03-26T00:14:57.247Z,97883.19
2023-03-26T00:17:49.065Z,97885.53
2023-03-26T00:20:38.495Z,97878.98
2023-03-26T00:23:29.246Z,97876.50
2023-03-26T00:26:18.952Z,97871.83
2023-03-26T00:29:09.988Z,97870.02
2023-03-26T00:31:59.220Z,97867.64
2023-03-26T00:34:47.842Z,97865.38
2023-03-26T00:37:37.319Z,97866.08
2023-03-26T00:40:26.194Z,97864.77
2023-03-26T00:43:21.021Z,97861.55
2023-03-26T00:46:09.688Z,97858.54
2023-03-26T00:48:59.922Z,97859.13
2023-03-26T00:51:48.691Z,97857.00
2023-03-26T00:54:37.366Z,97851.71
2023-03-26T00:57:35.829Z,97845.52
2023-03-26T01:05:44.268Z,97845.66
2023-03-26T01:08:40.634Z,97847.50
2023-03-26T01:11:34.976Z,97840.60
2023-03-26T01:14:26.938Z,97840.72
2023-03-26T01:17:16.276Z,97840.81
2023-03-26T01:20:15.170Z,97836.29
2023-03-26T01:23:06.421Z,97835.23
2023-03-26T01:26:00.441Z,97835.33
2023-03-26T01:28:54.693Z,97829.93
2023-03-26T01:31:57.382Z,97829.35
2023-03-26T01:35:05.179Z,97826.50
2023-03-26T01:38:46.850Z,97820.75
2023-03-26T01:41:47.645Z,97821.06
2023-03-26T01:44:51.211Z,97820.00
2023-03-26T01:47:42.330Z,97819.08
2023-03-26T01:50:31.630Z,97813.80
2023-03-26T01:53:20.326Z,97817.41
2023-03-26T01:56:11.046Z,97812.72
2023-03-26T01:59:09.075Z,97814.56
2023-03-26T02:02:15.620Z,97812.02
2023-03-26T02:05:20.978Z,97816.65
2023-03-26T02:08:31.983Z,97815.89
2023-03-26T02:11:21.583Z,97811.80
2023-03-26T02:14:15.031Z,97804.19
2023-03-26T02:17:03.878Z,97801.23
2023-03-26T02:19:54.536Z,97801.19
2023-03-26T02:22:45.688Z,97798.38
2023-03-26T02:25:36.874Z,97800.80
2023-03-26T02:28:25.806Z,97802.27
2023-03-26T02:31:16.315Z,97801.05
2023-03-26T02:34:05.305Z,97801.95
2023-03-26T02:36:57.451Z,97804.96
2023-03-26T02:39:47.572Z,97806.71
2023-03-26T02:42:48.912Z,97806.27
2023-03-26T02:45:37.534Z,97810.60
2023-03-26T02:48:29.162Z,97806.27
2023-03-26T02:51:27.432Z,97806.81
2023-03-26T02:54:25.739Z,97811.09
2023-03-26T02:57:43.549Z,97806.30
2023-03-26T03:00:33.874Z,97806.55
2023-03-26T03:03:42.705Z,97800.86
2023-03-26T03:06:53.149Z,97801.85
2023-03-26T03:09:42.150Z,97799.05
2023-03-26T03:13:06.005Z,97796.67
2023-03-26T03:15:55.208Z,97797.46
2023-03-26T03:18:44.332Z,97796.20
2023-03-26T03:21:33.055Z,97796.86
2023-03-26T03:24:21.925Z,97799.21
2023-03-26T03:27:10.612Z,97794.70
2023-03-26T03:30:13.566Z,97797.23
2023-03-26T03:33:25.324Z,97798.94
2023-03-26T03:36:20.376Z,97799.27
2023-03-26T03:39:12.023Z,97796.77
2023-03-26T03:42:01.523Z,97798.20
2023-03-26T03:44:50.623Z,97796.54
2023-03-26T03:48:03.321Z,97796.63
2023-03-26T03:50:58.011Z,97798.09
2023-03-26T03:53:50.522Z,97800.92
2023-03-26T03:56:51.120Z,97798.34
2023-03-26T04:00:00.397Z,97799.14
2023-03-26T04:02:54.510Z,97801.36
2023-03-26T04:05:55.195Z,97801.55
2023-03-26T04:08:46.227Z,97800.77
2023-03-26T04:11:35.070Z,97795.77
2023-03-26T04:14:43.152Z,97794.88
2023-03-26T04:17:42.872Z,97795.42
2023-03-26T04:20:33.926Z,97790.87
2023-03-26T04:23:26.736Z,97786.02
2023-03-26T04:26:21.071Z,97784.16
2023-03-26T04:29:34.734Z,97785.52
2023-03-26T04:32:34.217Z,97780.91
2023-03-26T04:35:24.060Z,97780.42
2023-03-26T04:38:16.941Z,97777.42
2023-03-26T04:41:12.021Z,97781.21
2023-03-26T04:44:06.956Z,97776.85
2023-03-26T04:47:04.277Z,97776.44
2023-03-26T04:49:58.644Z,97770.94
2023-03-26T04:52:47.420Z,97767.73
2023-03-26T04:56:06.835Z,97769.02
2023-03-26T04:59:19.632Z,97769.64
2023-03-26T05:02:08.452Z,97767.15
2023-03-26T05:05:08.756Z,97769.52
2023-03-26T05:07:57.770Z,97770.36
2023-03-26T05:10:47.059Z,97770.61
2023-03-26T05:13:42.989Z,97768.78
2023-03-26T05:16:34.426Z,97768.92
2023-03-26T05:19:28.310Z,97774.52
2023-03-26T05:22:17.303Z,97776.38
2023-03-26T05:25:25.018Z,97772.07
2023-03-26T05:28:14.141Z,97775.84
2023-03-26T05:31:12.536Z,97768.66
2023-03-26T05:34:02.326Z,97775.95
2023-03-26T05:36:50.975Z,97774.38
2023-03-26T05:40:04.405Z,97771.25
2023-03-26T05:43:05.027Z,97769.11
2023-03-26T05:46:04.390Z,97767.50
2023-03-26T05:48:54.090Z,97764.17
2023-03-26T05:51:43.535Z,97773.90
2023-03-26T05:54:46.803Z,97773.47
2023-03-26T05:57:54.373Z,97775.16
2023-03-26T06:01:06.320Z,97775.00
2023-03-26T06:04:16.312Z,97783.27
2023-03-26T06:07:12.065Z,97781.73
2023-03-26T06:10:04.204Z,97777.73
2023-03-26T06:12:52.840Z,97775.71
2023-03-26T06:15:42.597Z,97784.02
2023-03-26T06:18:42.280Z,97777.30
2023-03-26T06:22:00.585Z,97777.95
2023-03-26T06:24:57.029Z,97778.90
2023-03-26T06:28:05.866Z,97781.39
2023-03-26T06:31:13.433Z,97788.83
2023-03-26T06:34:10.883Z,97786.50
2023-03-26T06:36:59.573Z,97786.98
2023-03-26T06:39:48.891Z,97787.73
2023-03-26T06:43:07.580Z,97784.63
2023-03-26T06:46:12.613Z,97788.01
2023-03-26T06:49:19.610Z,97789.50
2023-03-26T06:52:27.603Z,97791.86
2023-03-26T06:55:31.386Z,97795.84
2023-03-26T06:58:30.153Z,97797.17
2023-03-26T07:01:37.242Z,97792.73
2023-03-26T07:04:44.622Z,97797.10
2023-03-26T07:08:05.852Z,97792.72
2023-03-26T07:11:13.413Z,97793.67
2023-03-26T07:14:04.699Z,97791.19
2023-03-26T07:17:23.067Z,97794.13
2023-03-26T07:20:16.543Z,97796.97
2023-03-26T07:23:06.562Z,97793.36
2023-03-26T07:26:29.091Z,97793.60
2023-03-26T07:29:37.693Z,97791.74
2023-03-26T07:32:56.079Z,97795.17
2023-03-26T07:36:13.759Z,97793.29
2023-03-26T07:39:54.923Z,97791.48
2023-03-26T07:43:19.520Z,97792.23
2023-03-26T07:46:13.686Z,97791.49
2023-03-26T07:49:13.243Z,97791.34
2023-03-26T07:52:21.573Z,97791.87
2023-03-26T07:56:00.048Z,97787.37
2023-03-26T07:59:29.712Z,97788.18
2023-03-26T08:03:02.874Z,97788.23
2023-03-26T08:06:29.498Z,97792.77
2023-03-26T08:09:38.898Z,97797.69
2023-03-26T08:13:19.473Z,97799.52
2023-03-26T08:16:16.863Z,97800.81
2023-03-26T08:19:38.395Z,97800.15
2023-03-26T08:22:31.701Z,97800.66
2023-03-26T08:25:33.241Z,97796.81
2023-03-26T08:28:46.184Z,97794.53
2023-03-26T08:31:39.061Z,97794.17
2023-03-26T08:34:28.247Z,97791.31
2023-03-26T08:37:16.848Z,97792.73
2023-03-26T08:40:06.825Z,97790.48
2023-03-26T08:43:33.518Z,97790.33
2023-03-26T08:46:54.373Z,97788.02
2023-03-26T08:49:49.395Z,97784.19
2023-03-26T08:52:57.108Z,97784.95
2023-03-26T08:55:48.387Z,97786.05
2023-03-26T08:59:16.820Z,97787.13
2023-03-26T09:02:11.726Z,97794.28
2023-03-26T09:05:19.243Z,97791.96
2023-03-26T09:08:20.513Z,97790.33
2023-03-26T09:11:27.443Z,97786.07
2023-03-26T09:14:16.075Z,97780.02
2023-03-26T09:17:36.940Z,97779.23
2023-03-26T09:20:48.331Z,97776.92
2023-03-26T09:24:03.368Z,97773.70
2023-03-26T09:26:55.092Z,97776.73
2023-03-26T09:30:16.398Z,97772.98
2023-03-26T09:33:23.419Z,97773.36
2023-03-26T09:36:18.503Z,97790.85
2023-03-26T09:39:16.543Z,97796.52
2023-03-26T09:42:09.053Z,97798.36
2023-03-26T09:45:16.862Z,97807.08
2023-03-26T09:48:59.909Z,97794.09
2023-03-26T09:52:11.958Z,97810.27
2023-03-26T09:55:34.890Z,97817.76
2023-03-26T09:58:27.288Z,97815.72
2023-03-26T10:01:32.342Z,97810.87
2023-03-26T10:05:02.315Z,97801.87
2023-03-26T10:08:07.600Z,97792.77
2023-03-26T10:11:03.371Z,97795.61
2023-03-26T10:14:18.647Z,97803.23
2023-03-26T10:17:28.462Z,97802.48
2023-03-26T10:20:34.274Z,97797.70
2023-03-26T10:23:34.862Z,97796.58
2023-03-26T10:27:08.732Z,97795.55
2023-03-26T10:30:19.905Z,97792.02
2023-03-26T10:33:35.525Z,97786.96
2023-03-26T10:36:35.744Z,97784.61
2023-03-26T10:39:43.623Z,97787.15
2023-03-26T10:42:47.361Z,97791.90
2023-03-26T10:45:49.494Z,97789.88
2023-03-26T10:48:47.759Z,97801.60
2023-03-26T10:51:51.606Z,97811.17
2023-03-26T10:55:02.855Z,97821.61
2023-03-26T10:57:58.609Z,97820.45
2023-03-26T11:00:56.605Z,97815.88
2023-03-26T11:03:54.966Z,97807.52
2023-03-26T11:07:05.291Z,97810.11
2023-03-26T11:09:59.121Z,97808.73
2023-03-26T11:13:13.112Z,97806.98
2023-03-26T11:16:10.085Z,97805.45
2023-03-26T11:19:31.219Z,97799.95
2023-03-26T11:22:41.381Z,97788.41
2023-03-26T11:25:36.449Z,97778.97
2023-03-26T11:29:03.989Z,97777.35
2023-03-26T11:32:13.960Z,97775.29
2023-03-26T11:35:43.930Z,97773.14
2023-03-26T11:38:38.011Z,97772.46
2023-03-26T11:41:31.542Z,97768.11
2023-03-26T11:45:05.682Z,97767.75
2023-03-26T11:48:11.989Z,97763.66
2023-03-26T11:51:06.191Z,97760.70
2023-03-26T11:53:57.896Z,97758.54
2023-03-26T11:57:05.293Z,97758.05
2023-03-26T12:00:17.586Z,97758.15
2023-03-26T12:03:15.539Z,97758.06
2023-03-26T12:06:04.916Z,97757.56
2023-03-26T12:08:53.442Z,97752.88
2023-03-26T12:11:42.418Z,97749.33
2023-03-26T12:14:34.699Z,97748.78
2023-03-26T12:17:33.103Z,97746.91
2023-03-26T12:20:27.663Z,97739.56
2023-03-26T12:23:37.521Z,97742.78
2023-03-26T12:26:42.739Z,97738.90
2023-03-26T12:29:34.746Z,97733.48
2023-03-26T12:32:32.580Z,97731.97
2023-03-26T12:35:35.096Z,97733.75
2023-03-26T12:38:40.711Z,97732.20
2023-03-26T12:44:42.403Z,97731.63
2023-03-26T12:44:58.936Z,97731.29
2023-03-26T12:48:01.576Z,97733.49
2023-03-26T12:50:58.016Z,97735.91
2023-03-26T12:54:00.005Z,97732.58
2023-03-26T13:00:27.114Z,97731.23
2023-03-26T13:02:23.989Z,97728.92
2023-03-26T13:03:37.999Z,97724.61
2023-03-26T13:07:00.388Z,97721.25
2023-03-26T13:10:24.922Z,97723.55
2023-03-26T13:13:36.484Z,97713.42
2023-03-26T13:16:42.543Z,97713.56
2023-03-26T13:20:00.453Z,97717.30
2023-03-26T13:23:17.275Z,97714.93
2023-03-26T13:26:36.791Z,97711.99
2023-03-26T13:29:51.785Z,97705.17
2023-03-26T13:32:59.813Z,97703.65
2023-03-26T13:36:22.511Z,97698.33
2023-03-26T13:39:27.883Z,97693.98
2023-03-26T13:42:37.824Z,97694.19
2023-03-26T13:45:51.206Z,97693.27
2023-03-26T13:48:48.418Z,97685.16
2023-03-26T13:51:37.416Z,97684.25
2023-03-26T13:54:48.052Z,97689.64
2023-03-26T13:57:43.317Z,97691.68
2023-03-26T14:00:47.874Z,97696.83
2023-03-26T14:03:43.494Z,97692.75
2023-03-26T14:06:57.356Z,97688.83
2023-03-26T14:10:08.454Z,97687.33
2023-03-26T14:13:06.820Z,97689.81
2023-03-26T14:16:21.045Z,97693.03
2023-03-26T14:19:12.714Z,97688.57
2023-03-26T14:22:28.666Z,97692.13
2023-03-26T14:25:23.971Z,97688.34
2023-03-26T14:28:34.351Z,97685.10
2023-03-26T14:32:24.250Z,97682.45
2023-03-26T14:35:28.626Z,97684.73
2023-03-26T14:38:51.154Z,97690.04
2023-03-26T14:42:24.790Z,97688.90
2023-03-26T14:45:37.647Z,97689.20
2023-03-26T14:48:44.291Z,97687.20
2023-03-26T14:51:59.240Z,97683.67
2023-03-26T14:54:53.496Z,97683.58
2023-03-26T15:02:34.801Z,97672.63
2023-03-26T15:06:03.902Z,97680.40
2023-03-26T15:09:37.313Z,97683.27
2023-03-26T15:12:47.313Z,97684.53
2023-03-26T15:16:07.111Z,97681.61
2023-03-26T15:19:14.195Z,97681.73
2023-03-26T15:22:21.451Z,97686.09
2023-03-26T15:25:24.483Z,97687.95
2023-03-26T15:28:50.266Z,97684.34
2023-03-26T15:31:47.644Z,97681.29
2023-03-26T15:35:09.904Z,97671.83
2023-03-26T15:38:09.106Z,97668.72
2023-03-26T15:41:24.994Z,97668.33
2023-03-26T15:44:38.091Z,97670.06
2023-03-26T15:47:54.431Z,97672.88
2023-03-26T15:51:04.340Z,97672.15
2023-03-26T15:54:16.640Z,97671.91
2023-03-26T15:57:18.218Z,97672.48
2023-03-26T16:00:23.543Z,97671.99
2023-03-26T16:03:30.906Z,97675.36
2023-03-26T16:06:48.442Z,97676.20
2023-03-26T16:10:10.907Z,97679.17
2023-03-26T16:13:28.003Z,97673.71
2023-03-26T16:16:16.536Z,97671.87
2023-03-26T16:19:49.919Z,97674.36
2023-03-26T16:22:53.482Z,97675.08
2023-03-26T16:26:01.223Z,97679.89
2023-03-26T16:28:53.446Z,97678.59
2023-03-26T16:32:10.079Z,97680.23
2023-03-26T16:35:09.124Z,97678.43
2023-03-26T16:38:06.072Z,97681.17
2023-03-26T16:41:15.283Z,97681.55
2023-03-26T16:44:52.867Z,97677.36
2023-03-26T16:47:55.369Z,97676.23
2023-03-26T16:50:56.163Z,97675.80
2023-03-26T16:53:46.020Z,97672.70
2023-03-26T16:56:51.133Z,97667.10
2023-03-26T17:00:19.071Z,97664.93
2023-03-26T17:03:23.007Z,97663.41
2023-03-26T17:06:17.581Z,97660.23
2023-03-26T17:09:25.159Z,97659.31
2023-03-26T17:12:31.419Z,97663.58
2023-03-26T17:15:48.560Z,97660.09
2023-03-26T17:19:03.457Z,97657.59
2023-03-26T17:22:12.961Z,97659.13
2023-03-26T17:25:20.260Z,97667.77
2023-03-26T17:28:37.597Z,97666.77
2023-03-26T17:31:49.377Z,97668.09
2023-03-26T17:34:38.557Z,97662.35
2023-03-26T17:37:43.393Z,97664.20
2023-03-26T17:40:55.692Z,97668.15
2023-03-26T17:43:50.274Z,97673.55
2023-03-26T17:46:49.713Z,97672.40
2023-03-26T17:49:41.086Z,97664.91
2023-03-26T17:52:48.246Z,97660.25
2023-03-26T17:55:38.807Z,97658.31
2023-03-26T17:58:29.624Z,97657.03
2023-03-26T18:01:37.239Z,97661.81
2023-03-26T18:04:33.605Z,97662.92
2023-03-26T18:07:59.400Z,97662.48
2023-03-26T18:11:10.586Z,97664.89
2023-03-26T18:14:17.743Z,97655.80
2023-03-26T18:17:07.099Z,97653.20
2023-03-26T18:20:06.441Z,97648.15
2023-03-26T18:22:56.162Z,97648.45
2023-03-26T18:25:52.580Z,97643.73
2023-03-26T18:28:54.387Z,97641.86
2023-03-26T18:31:44.305Z,97637.41
2023-03-26T18:34:34.346Z,97638.70
2023-03-26T18:37:36.549Z,97640.73
2023-03-26T18:40:29.153Z,97641.05
2023-03-26T18:43:34.420Z,97640.27
2023-03-26T18:46:24.655Z,97639.17
2023-03-26T18:49:15.687Z,97636.38
2023-03-26T18:52:05.069Z,97635.27
2023-03-26T18:54:54.381Z,97635.60
2023-03-26T18:57:43.674Z,97635.64
2023-03-26T19:00:32.277Z,97633.89
2023-03-26T19:03:24.460Z,97634.16
2023-03-26T19:06:15.027Z,97631.77
2023-03-26T19:09:23.867Z,97629.60
2023-03-26T19:12:29.326Z,97627.02
2023-03-26T19:15:18.662Z,97627.27
2023-03-26T19:18:14.041Z,97623.85
2023-03-26T19:21:04.624Z,97624.95
2023-03-26T19:23:54.902Z,97626.42
2023-03-26T19:26:49.023Z,97621.00
2023-03-26T19:29:38.190Z,97621.71
2023-03-26T19:32:32.996Z,97617.84
2023-03-26T19:35:23.762Z,97609.34
2023-03-26T19:38:22.905Z,97603.84
2023-03-26T19:41:43.890Z,97601.75
2023-03-26T19:44:33.424Z,97597.77
2023-03-26T19:47:32.153Z,97595.30
2023-03-26T19:50:25.961Z,97597.56
2023-03-26T19:53:32.957Z,97596.31
2023-03-26T19:56:23.348Z,97591.33
2023-03-26T19:59:11.983Z,97588.36
2023-03-26T20:02:00.922Z,97584.98
2023-03-26T20:04:50.135Z,97585.48
2023-03-26T20:07:39.493Z,97586.19
2023-03-26T20:10:28.261Z,97588.71
2023-03-26T20:13:17.865Z,97591.29
2023-03-26T20:16:13.238Z,97592.77
2023-03-26T20:19:05.444Z,97591.77
2023-03-26T20:21:54.661Z,97587.20
2023-03-26T20:24:47.136Z,97581.13
2023-03-26T20:27:35.776Z,97574.73
2023-03-26T20:33:20.708Z,97567.47
2023-03-26T20:36:13.823Z,97567.31
2023-03-26T20:39:23.643Z,97566.63
2023-03-26T20:42:15.453Z,97563.21
2023-03-26T20:45:20.270Z,97558.93
2023-03-26T20:48:10.632Z,97561.20
2023-03-26T20:50:59.163Z,97567.06
2023-03-26T20:53:51.437Z,97567.23
2023-03-26T20:56:41.731Z,97570.81
2023-03-26T20:59:30.661Z,97569.22
2023-03-26T21:02:20.446Z,97576.73
2023-03-26T21:05:15.145Z,97583.63
2023-03-26T21:08:03.868Z,97581.35
2023-03-26T21:10:53.113Z,97581.22
2023-03-26T21:14:01.960Z,97577.73
2023-03-26T21:16:51.807Z,97569.23
2023-03-26T21:19:40.702Z,97561.96
2023-03-26T21:22:39.901Z,97566.30
2023-03-26T21:25:40.436Z,97574.20
2023-03-26T21:28:42.300Z,97569.14
2023-03-26T21:31:39.112Z,97578.12
2023-03-26T21:34:28.097Z,97580.06
2023-03-26T21:37:19.029Z,97584.39
2023-03-26T21:40:14.907Z,97581.23
2023-03-26T21:43:04.062Z,97574.89
2023-03-26T21:45:59.070Z,97567.75
2023-03-26T21:48:47.853Z,97563.80
2023-03-26T21:51:40.251Z,97563.50
2023-03-26T21:54:31.690Z,97562.05
2023-03-26T21:57:58.874Z,97560.95
2023-03-26T22:01:03.515Z,97556.05
2023-03-26T22:04:15.148Z,97548.85
2023-03-26T22:07:10.567Z,97544.55
2023-03-26T22:09:59.697Z,97541.71
2023-03-26T22:12:48.529Z,97542.09
2023-03-26T22:15:38.036Z,97544.54
2023-03-26T22:18:32.255Z,97542.52
2023-03-26T22:21:23.680Z,97538.41
2023-03-26T22:24:15.085Z,97540.55
2023-03-26T22:27:04.340Z,97538.52
2023-03-26T22:29:53.133Z,97531.40
2023-03-26T22:32:44.028Z,97531.23
2023-03-26T22:35:32.673Z,97531.73
2023-03-26T22:38:21.778Z,97533.90
2023-03-26T22:41:10.995Z,97534.16
2023-03-26T22:44:09.266Z,97535.89
2023-03-26T22:47:01.658Z,97537.89
2023-03-26T22:49:52.894Z,97537.59
2023-03-26T22:52:41.705Z,97541.26
2023-03-26T22:55:31.576Z,97549.27
2023-03-26T22:58:20.283Z,97550.89
2023-03-26T23:01:18.096Z,97551.61
2023-03-26T23:04:07.095Z,97551.62
2023-03-26T23:06:56.732Z,97544.66
2023-03-26T23:09:45.713Z,97538.52
2023-03-26T23:12:35.058Z,97537.97
2023-03-26T23:15:25.890Z,97536.38
2023-03-26T23:18:17.308Z,97530.53
2023-03-26T23:21:11.933Z,97526.80
2023-03-26T23:24:01.308Z,97530.16
2023-03-26T23:26:51.243Z,97527.79
2023-03-26T23:29:40.392Z,97529.47
2023-03-26T23:32:28.940Z,97526.60
2023-03-26T23:35:17.993Z,97528.05
2023-03-26T23:38:06.938Z,97526.04
2023-03-26T23:40:57.805Z,97515.73
2023-03-26T23:43:54.472Z,97513.48
2023-03-26T23:46:44.606Z,97506.61
2023-03-26T23:49:33.080Z,97505.42
2023-03-26T23:52:22.061Z,97501.50
2023-03-26T23:55:10.567Z,97504.60
2023-03-26T23:57:59.284Z,97502.88
